Terminal Aerodrome Forecast
Issued by NWS

Home | Current Version | Previous Version | Text Only | Print | Product List | Glossary On
Versions: 1 2 3 4 5 6 7 8 9 10 11 12 13 14 15 16 17
000
FTUS43 KILX 251000 AAA
TAFDEC
TAF AMD
KDEC 251051Z 2511/2606 27006KT P6SM OVC015
      TEMPO 2511/2514 3SM BR
     FM251400 29008KT P6SM SCT015
     FM251800 32008KT P6SM SKC
     FM252300 33004KT P6SM SKC=

USA.gov is the U.S. government's official web portal to all federal, state and local government web resources and services.